Weather at Eidsberg Airstrip

Public forecast

Using degrees Celsius for public forecast. Weather courtesy of forecast.io.

Closest aviation weather report (METAR) to Eidsberg Airstrip

Closest report is Moss Airport, Rygge, 16.9 nm (31.2 km) WSW. Retrieved 2021/07/28 17:20 UTC (33 minutes ago):

ENRY 281720Z 20007KT 170V240 9999 SCT022 20/14 Q1004

Closest aviation forecast (TAF) to Eidsberg Airstrip

Closest forecast is Moss Airport, Rygge, 16.9 nm (31.2 km) WSW. Retrieved 2021/07/28 12:03 UTC (6 hours ago):

TAF TAF ENRY 281100Z 2812/2912 19012KT 9999 SCT015 BKN025 TEMPO 2812/2824 SHRA BKN010 SCT020CB BECMG 2817/2819 VRB05KT TEMPO 2900/2912 2000 SHRA BR BKN004 SCT015CB PROB40 TEMPO 2903/2912 TS